createdAt,value
2023-05-21T00:00:50.107Z,0.00
2023-05-21T00:01:50.150Z,0.00
2023-05-21T00:02:50.160Z,0.00
2023-05-21T00:03:50.322Z,0.00
2023-05-21T00:04:50.061Z,0.00
2023-05-21T00:05:50.237Z,0.00
2023-05-21T00:06:50.064Z,0.00
2023-05-21T00:07:50.082Z,0.00
2023-05-21T00:08:50.016Z,0.00
2023-05-21T00:09:50.028Z,0.00
2023-05-21T00:10:50.003Z,0.00
2023-05-21T00:11:50.001Z,0.00
2023-05-21T00:12:50.029Z,0.00
2023-05-21T00:13:49.979Z,0.00
2023-05-21T00:14:49.956Z,0.00
2023-05-21T00:15:49.953Z,0.00
2023-05-21T00:16:50.093Z,0.00
2023-05-21T00:17:49.954Z,0.00
2023-05-21T00:18:49.971Z,0.00
2023-05-21T00:19:49.918Z,0.00
2023-05-21T00:20:49.888Z,0.00
2023-05-21T00:21:49.896Z,0.00
2023-05-21T00:22:49.895Z,0.00
2023-05-21T00:23:49.895Z,0.00
2023-05-21T00:24:49.853Z,0.00
2023-05-21T00:25:49.851Z,0.00
2023-05-21T00:26:49.836Z,0.00
2023-05-21T00:27:49.832Z,0.00
2023-05-21T00:28:49.826Z,0.00
2023-05-21T00:29:49.818Z,0.00
2023-05-21T00:30:49.790Z,0.00
2023-05-21T00:31:49.798Z,0.00
2023-05-21T00:32:49.827Z,0.00
2023-05-21T00:33:49.778Z,0.00
2023-05-21T00:34:49.757Z,0.00
2023-05-21T00:35:49.735Z,0.00
2023-05-21T00:36:49.747Z,0.00
2023-05-21T00:37:49.746Z,0.00
2023-05-21T00:38:49.717Z,0.00
2023-05-21T00:39:49.704Z,0.00
2023-05-21T00:40:49.690Z,0.00
2023-05-21T00:41:49.680Z,0.00
2023-05-21T00:42:49.698Z,0.00
2023-05-21T00:43:49.659Z,0.00
2023-05-21T00:44:49.641Z,0.00
2023-05-21T00:45:49.671Z,0.00
2023-05-21T00:46:49.618Z,0.00
2023-05-21T00:47:49.673Z,0.00
2023-05-21T00:48:49.606Z,0.00
2023-05-21T00:49:49.611Z,0.00
2023-05-21T00:50:49.594Z,0.00
2023-05-21T00:51:49.608Z,0.00
2023-05-21T00:52:52.146Z,0.00
2023-05-21T00:53:49.561Z,0.00
2023-05-21T00:54:49.540Z,0.00
2023-05-21T00:55:49.568Z,0.00
2023-05-21T00:56:49.517Z,0.00
2023-05-21T00:57:52.824Z,0.00
2023-05-21T00:58:49.492Z,0.00
2023-05-21T00:59:49.505Z,0.00
2023-05-21T01:00:49.474Z,0.00
2023-05-21T01:01:50.726Z,0.00
2023-05-21T01:02:49.574Z,0.00
2023-05-21T01:03:49.484Z,0.00
2023-05-21T01:04:49.428Z,0.00
2023-05-21T01:05:49.433Z,0.00
2023-05-21T01:06:49.438Z,0.00
2023-05-21T01:07:53.576Z,0.00
2023-05-21T01:08:49.401Z,0.00
2023-05-21T01:09:49.421Z,0.00
2023-05-21T01:10:49.377Z,0.00
2023-05-21T01:11:49.387Z,0.00
2023-05-21T01:12:49.355Z,0.00
2023-05-21T01:13:49.377Z,0.00
2023-05-21T01:14:49.359Z,0.00
2023-05-21T01:15:49.334Z,0.00
2023-05-21T01:16:49.377Z,0.00
2023-05-21T01:17:50.876Z,0.00
2023-05-21T01:18:49.412Z,0.00
2023-05-21T01:19:49.418Z,0.00
2023-05-21T01:20:49.304Z,0.00
2023-05-21T01:21:49.277Z,0.00
2023-05-21T01:22:49.265Z,0.00
2023-05-21T01:23:49.272Z,0.00
2023-05-21T01:24:49.232Z,0.00
2023-05-21T01:25:49.231Z,0.00
2023-05-21T01:26:49.242Z,0.00
2023-05-21T01:27:49.210Z,0.00
2023-05-21T01:28:49.205Z,0.00
2023-05-21T01:29:49.202Z,0.00
2023-05-21T01:30:49.176Z,0.00
2023-05-21T01:31:49.209Z,0.00
2023-05-21T01:32:49.292Z,0.00
2023-05-21T01:33:49.214Z,0.00
2023-05-21T01:34:50.542Z,0.00
2023-05-21T01:35:49.140Z,0.00
2023-05-21T01:36:49.116Z,0.00
2023-05-21T01:37:49.115Z,0.00
2023-05-21T01:38:49.098Z,0.00
2023-05-21T01:39:49.122Z,0.00
2023-05-21T01:40:49.074Z,0.00
2023-05-21T01:41:49.396Z,0.00
2023-05-21T01:42:49.052Z,0.00
2023-05-21T01:43:49.056Z,0.00
2023-05-21T01:44:49.055Z,0.00
2023-05-21T01:45:49.033Z,0.00
2023-05-21T01:46:49.117Z,0.00
2023-05-21T01:47:50.458Z,0.00
2023-05-21T01:48:49.012Z,0.00
2023-05-21T01:49:53.189Z,0.00
2023-05-21T01:50:48.972Z,0.00
2023-05-21T01:51:48.985Z,0.00
2023-05-21T01:52:48.952Z,0.00
2023-05-21T01:53:48.968Z,0.00
2023-05-21T01:54:48.935Z,0.00
2023-05-21T01:55:48.916Z,0.00
2023-05-21T01:56:48.922Z,0.00
2023-05-21T01:57:48.908Z,0.00
2023-05-21T01:58:48.913Z,0.00
2023-05-21T01:59:48.885Z,0.00
2023-05-21T02:00:48.878Z,0.00
2023-05-21T02:01:49.807Z,0.00
2023-05-21T02:02:49.120Z,0.00
2023-05-21T02:03:48.982Z,0.00
2023-05-21T02:04:48.845Z,0.00
2023-05-21T02:05:48.817Z,0.00
2023-05-21T02:06:48.836Z,0.00
2023-05-21T02:07:48.805Z,0.00
2023-05-21T02:08:48.824Z,0.00
2023-05-21T02:09:48.780Z,0.00
2023-05-21T02:10:48.774Z,0.00
2023-05-21T02:11:48.763Z,0.00
2023-05-21T02:12:48.772Z,0.00
2023-05-21T02:13:48.780Z,0.00
2023-05-21T02:14:48.744Z,0.00
2023-05-21T02:15:48.772Z,0.00
2023-05-21T02:16:50.221Z,0.00
2023-05-21T02:17:48.757Z,0.00
2023-05-21T02:18:48.706Z,0.00
2023-05-21T02:19:49.478Z,0.00
2023-05-21T02:20:48.698Z,0.00
2023-05-21T02:21:48.657Z,0.00
2023-05-21T02:22:48.616Z,0.00
2023-05-21T02:23:48.672Z,0.00
2023-05-21T02:24:48.650Z,0.00
2023-05-21T02:25:48.617Z,0.00
2023-05-21T02:26:48.569Z,0.00
2023-05-21T02:27:48.540Z,0.00
2023-05-21T02:28:48.536Z,0.00
2023-05-21T02:29:48.522Z,0.00
2023-05-21T02:30:48.533Z,0.00
2023-05-21T02:31:48.515Z,0.00
2023-05-21T02:32:48.526Z,0.00
2023-05-21T02:33:48.503Z,0.00
2023-05-21T02:34:48.482Z,0.00
2023-05-21T02:35:48.483Z,0.00
2023-05-21T02:36:48.494Z,0.00
2023-05-21T02:37:48.437Z,0.00
2023-05-21T02:38:48.433Z,0.00
2023-05-21T02:39:48.425Z,0.00
2023-05-21T02:40:49.044Z,0.00
2023-05-21T02:41:48.410Z,0.00
2023-05-21T02:42:48.401Z,0.00
2023-05-21T02:43:48.374Z,0.00
2023-05-21T02:44:48.363Z,0.00
2023-05-21T02:45:48.403Z,0.00
2023-05-21T02:46:48.348Z,0.00
2023-05-21T02:47:48.382Z,0.00
2023-05-21T02:48:48.333Z,0.00
2023-05-21T02:49:48.306Z,0.00
2023-05-21T02:50:48.316Z,0.00
2023-05-21T02:51:48.291Z,0.00
2023-05-21T02:52:48.732Z,0.00
2023-05-21T02:53:48.274Z,0.00
2023-05-21T02:54:48.268Z,0.00
2023-05-21T02:55:48.253Z,0.00
2023-05-21T02:56:48.293Z,0.00
2023-05-21T02:57:48.216Z,0.00
2023-05-21T02:58:48.231Z,0.00
2023-05-21T02:59:48.201Z,0.00
2023-05-21T03:00:48.197Z,0.00
2023-05-21T03:01:48.263Z,0.00
2023-05-21T03:02:48.355Z,0.00
2023-05-21T03:03:48.266Z,0.00
2023-05-21T03:04:48.165Z,0.00
2023-05-21T03:05:48.143Z,0.00
2023-05-21T03:06:48.145Z,0.00
2023-05-21T03:07:48.161Z,0.00
2023-05-21T03:08:48.120Z,0.00
2023-05-21T03:09:48.098Z,0.00
2023-05-21T03:10:48.093Z,0.00
2023-05-21T03:11:48.084Z,0.00
2023-05-21T03:12:48.097Z,0.00
2023-05-21T03:13:48.110Z,0.00
2023-05-21T03:14:48.071Z,0.00
2023-05-21T03:15:49.410Z,0.00
2023-05-21T03:16:48.082Z,5.62
2023-05-21T03:17:48.064Z,5.62
2023-05-21T03:18:48.024Z,5.62
2023-05-21T03:19:48.025Z,5.62
2023-05-21T03:20:47.994Z,5.62
2023-05-21T03:21:47.972Z,5.62
2023-05-21T03:22:47.983Z,5.62
2023-05-21T03:23:47.951Z,5.62
2023-05-21T03:24:47.972Z,5.62
2023-05-21T03:25:47.933Z,5.62
2023-05-21T03:26:49.899Z,5.62
2023-05-21T03:27:47.913Z,5.62
2023-05-21T03:28:47.924Z,5.62
2023-05-21T03:29:47.919Z,5.62
2023-05-21T03:30:47.896Z,5.62
2023-05-21T03:31:47.899Z,11.25
2023-05-21T03:32:47.945Z,11.25
2023-05-21T03:33:47.867Z,11.25
2023-05-21T03:34:47.882Z,11.25
2023-05-21T03:35:47.825Z,11.25
2023-05-21T03:36:47.825Z,11.25
2023-05-21T03:37:47.821Z,11.25
2023-05-21T03:38:47.831Z,11.25
2023-05-21T03:39:47.791Z,11.25
2023-05-21T03:40:47.788Z,11.25
2023-05-21T03:41:47.774Z,11.25
2023-05-21T03:42:47.768Z,16.88
2023-05-21T03:43:47.761Z,16.88
2023-05-21T03:44:47.769Z,16.88
2023-05-21T03:45:47.755Z,16.88
2023-05-21T03:46:47.726Z,16.88
2023-05-21T03:47:47.725Z,16.88
2023-05-21T03:48:47.706Z,16.88
2023-05-21T03:49:47.698Z,16.88
2023-05-21T03:50:47.683Z,16.88
2023-05-21T03:51:47.662Z,16.88
2023-05-21T03:52:47.654Z,16.88
2023-05-21T03:53:47.644Z,16.88
2023-05-21T03:54:47.675Z,16.88
2023-05-21T03:55:47.620Z,22.50
2023-05-21T03:56:47.628Z,22.50
2023-05-21T03:57:47.600Z,22.50
2023-05-21T03:58:47.602Z,22.50
2023-05-21T03:59:47.595Z,22.50
2023-05-21T04:00:47.584Z,22.50
2023-05-21T04:01:48.162Z,22.50
2023-05-21T04:02:47.607Z,22.50
2023-05-21T04:03:47.721Z,22.50
2023-05-21T04:04:47.682Z,28.12
2023-05-21T04:05:47.530Z,28.12
2023-05-21T04:06:47.523Z,28.12
2023-05-21T04:07:47.511Z,28.12
2023-05-21T04:08:47.502Z,28.12
2023-05-21T04:09:47.522Z,28.12
2023-05-21T04:10:47.468Z,33.75
2023-05-21T04:11:47.459Z,33.75
2023-05-21T04:12:47.457Z,33.75
2023-05-21T04:13:47.435Z,33.75
2023-05-21T04:14:47.462Z,33.75
2023-05-21T04:15:47.444Z,33.75
2023-05-21T04:16:47.414Z,33.75
2023-05-21T04:17:47.429Z,33.75
2023-05-21T04:18:47.497Z,39.38
2023-05-21T04:19:47.399Z,39.38
2023-05-21T04:20:47.376Z,39.38
2023-05-21T04:21:47.373Z,39.38
2023-05-21T04:22:47.354Z,39.38
2023-05-21T04:23:47.333Z,45.00
2023-05-21T04:24:47.366Z,45.00
2023-05-21T04:25:47.325Z,45.00
2023-05-21T04:26:47.373Z,45.00
2023-05-21T04:27:47.301Z,45.00
2023-05-21T04:28:47.295Z,45.00
2023-05-21T04:29:48.465Z,50.62
2023-05-21T04:30:47.265Z,50.62
2023-05-21T04:31:47.299Z,50.62
2023-05-21T04:32:47.316Z,50.62
2023-05-21T04:33:47.232Z,50.62
2023-05-21T04:34:47.235Z,56.25
2023-05-21T04:35:47.408Z,56.25
2023-05-21T04:36:47.231Z,56.25
2023-05-21T04:37:47.192Z,56.25
2023-05-21T04:38:47.198Z,56.25
2023-05-21T04:39:47.169Z,61.88
2023-05-21T04:40:47.169Z,61.88
2023-05-21T04:41:47.181Z,61.88
2023-05-21T04:42:47.156Z,61.88
2023-05-21T04:43:47.125Z,61.88
2023-05-21T04:44:47.142Z,67.50
2023-05-21T04:45:49.732Z,67.50
2023-05-21T04:46:47.172Z,67.50
2023-05-21T04:47:47.138Z,67.50
2023-05-21T04:48:47.096Z,67.50
2023-05-21T04:49:47.096Z,73.12
2023-05-21T04:50:47.078Z,73.12
2023-05-21T04:51:47.077Z,73.12
2023-05-21T04:52:47.058Z,73.12
2023-05-21T04:53:47.044Z,73.12
2023-05-21T04:54:47.050Z,78.75
2023-05-21T04:55:47.030Z,78.75
2023-05-21T04:56:47.011Z,78.75
2023-05-21T04:57:47.011Z,78.75
2023-05-21T04:58:47.025Z,78.75
2023-05-21T04:59:47.017Z,78.75
2023-05-21T05:00:47.374Z,84.38
2023-05-21T05:01:46.968Z,84.38
2023-05-21T05:02:47.040Z,84.38
2023-05-21T05:03:46.955Z,90.00
2023-05-21T05:04:46.925Z,90.00
2023-05-21T05:05:46.911Z,90.00
2023-05-21T05:06:46.901Z,90.00
2023-05-21T05:07:46.908Z,90.00
2023-05-21T05:08:46.886Z,90.00
2023-05-21T05:09:46.862Z,95.62
2023-05-21T05:10:46.869Z,95.62
2023-05-21T05:11:46.847Z,95.62
2023-05-21T05:12:46.858Z,95.62
2023-05-21T05:13:48.454Z,95.62
2023-05-21T05:14:48.469Z,95.62
2023-05-21T05:15:49.344Z,95.62
2023-05-21T05:16:47.283Z,95.62
2023-05-21T05:17:47.440Z,95.62
2023-05-21T05:18:48.577Z,101.25
2023-05-21T05:19:46.781Z,101.25
2023-05-21T05:20:46.763Z,101.25
2023-05-21T05:21:46.771Z,101.25
2023-05-21T05:22:46.733Z,106.88
2023-05-21T05:23:46.718Z,106.88
2023-05-21T05:24:46.717Z,101.25
2023-05-21T05:25:46.715Z,106.88
2023-05-21T05:26:46.716Z,106.88
2023-05-21T05:27:46.687Z,112.50
2023-05-21T05:28:46.682Z,112.50
2023-05-21T05:29:46.685Z,118.12
2023-05-21T05:30:46.676Z,112.50
2023-05-21T05:31:46.632Z,106.88
2023-05-21T05:32:46.668Z,112.50
2023-05-21T05:33:46.623Z,118.12
2023-05-21T05:34:46.645Z,123.75
2023-05-21T05:35:46.601Z,123.75
2023-05-21T05:36:46.594Z,123.75
2023-05-21T05:37:46.580Z,123.75
2023-05-21T05:38:46.629Z,123.75
2023-05-21T05:39:46.542Z,123.75
2023-05-21T05:40:46.592Z,129.38
2023-05-21T05:41:46.535Z,129.38
2023-05-21T05:42:46.548Z,129.38
2023-05-21T05:43:46.525Z,129.38
2023-05-21T05:44:46.516Z,135.00
2023-05-21T05:45:48.397Z,135.00
2023-05-21T05:46:46.607Z,135.00
2023-05-21T05:47:46.530Z,129.38
2023-05-21T05:48:46.468Z,129.38
2023-05-21T05:49:46.450Z,129.38
2023-05-21T05:50:46.476Z,135.00
2023-05-21T05:51:46.426Z,140.62
2023-05-21T05:52:46.454Z,146.25
2023-05-21T05:53:46.399Z,151.88
2023-05-21T05:54:46.405Z,146.25
2023-05-21T05:55:46.405Z,146.25
2023-05-21T05:56:46.404Z,146.25
2023-05-21T05:57:46.370Z,146.25
2023-05-21T05:58:46.363Z,146.25
2023-05-21T05:59:46.352Z,140.62
2023-05-21T06:00:46.337Z,140.62
2023-05-21T06:01:46.346Z,140.62
2023-05-21T06:02:46.361Z,146.25
2023-05-21T06:03:46.411Z,140.62
2023-05-21T06:04:46.306Z,140.62
2023-05-21T06:05:46.372Z,140.62
2023-05-21T06:06:46.270Z,140.62
2023-05-21T06:07:46.303Z,135.00
2023-05-21T06:08:46.286Z,135.00
2023-05-21T06:09:46.254Z,135.00
2023-05-21T06:10:46.255Z,135.00
2023-05-21T06:11:46.230Z,135.00
2023-05-21T06:12:46.226Z,135.00
2023-05-21T06:13:46.205Z,129.38
2023-05-21T06:14:46.225Z,129.38
2023-05-21T06:15:46.275Z,129.38
2023-05-21T06:16:46.223Z,129.38
2023-05-21T06:17:47.656Z,129.38
2023-05-21T06:18:46.204Z,129.38
2023-05-21T06:19:46.137Z,129.38
2023-05-21T06:20:46.115Z,129.38
2023-05-21T06:21:46.147Z,129.38
2023-05-21T06:22:46.135Z,129.38
2023-05-21T06:23:46.100Z,129.38
2023-05-21T06:24:46.073Z,129.38
2023-05-21T06:25:46.076Z,129.38
2023-05-21T06:26:46.063Z,135.00
2023-05-21T06:27:46.058Z,135.00
2023-05-21T06:28:46.072Z,140.62
2023-05-21T06:29:46.043Z,146.25
2023-05-21T06:30:46.021Z,151.88
2023-05-21T06:31:46.026Z,151.88
2023-05-21T06:32:46.025Z,157.50
2023-05-21T06:33:46.221Z,163.12
2023-05-21T06:34:45.985Z,168.75
2023-05-21T06:35:46.015Z,174.38
2023-05-21T06:36:45.952Z,180.00
2023-05-21T06:37:45.958Z,180.00
2023-05-21T06:38:45.951Z,174.38
2023-05-21T06:39:45.935Z,174.38
2023-05-21T06:40:47.253Z,185.62
2023-05-21T06:41:45.923Z,196.88
2023-05-21T06:42:45.895Z,202.50
2023-05-21T06:43:45.913Z,202.50
2023-05-21T06:44:45.867Z,196.88
2023-05-21T06:45:49.286Z,185.62
2023-05-21T06:46:47.379Z,174.38
2023-05-21T06:47:46.030Z,163.12
2023-05-21T06:48:47.030Z,157.50
2023-05-21T06:49:45.826Z,157.50
2023-05-21T06:50:45.824Z,157.50
2023-05-21T06:51:45.818Z,157.50
2023-05-21T06:52:45.790Z,157.50
2023-05-21T06:53:48.775Z,157.50
2023-05-21T06:54:45.764Z,157.50
2023-05-21T06:55:45.768Z,157.50
2023-05-21T06:56:45.746Z,163.12
2023-05-21T06:57:45.748Z,168.75
2023-05-21T06:58:45.761Z,174.38
2023-05-21T06:59:45.745Z,185.62
2023-05-21T07:00:46.460Z,191.25
2023-05-21T07:01:46.542Z,196.88
2023-05-21T07:02:45.736Z,208.12
2023-05-21T07:03:45.790Z,230.62
2023-05-21T07:04:47.033Z,241.88
2023-05-21T07:05:45.652Z,219.38
2023-05-21T07:06:45.656Z,230.62
2023-05-21T07:07:45.656Z,247.50
2023-05-21T07:08:45.622Z,298.12
2023-05-21T07:09:45.615Z,388.12
2023-05-21T07:10:46.201Z,489.38
2023-05-21T07:11:45.617Z,573.75
2023-05-21T07:12:45.600Z,601.88
2023-05-21T07:13:45.572Z,641.25
2023-05-21T07:14:45.570Z,641.25
2023-05-21T07:15:45.567Z,646.88
2023-05-21T07:16:45.565Z,652.50
2023-05-21T07:17:45.590Z,613.12
2023-05-21T07:18:45.537Z,601.88
2023-05-21T07:19:45.526Z,613.12
2023-05-21T07:20:45.519Z,618.75
2023-05-21T07:21:45.506Z,624.38
2023-05-21T07:22:45.495Z,573.75
2023-05-21T07:23:45.469Z,613.12
2023-05-21T07:24:45.447Z,680.62
2023-05-21T07:25:45.469Z,697.50
2023-05-21T07:26:46.891Z,703.12
2023-05-21T07:27:45.448Z,663.75
2023-05-21T07:28:45.405Z,658.12
2023-05-21T07:29:45.403Z,630.00
2023-05-21T07:30:47.037Z,607.50
2023-05-21T07:31:45.385Z,708.75
2023-05-21T07:32:45.412Z,781.88
2023-05-21T07:33:45.374Z,855.00
2023-05-21T07:34:45.940Z,838.12
2023-05-21T07:35:45.367Z,793.12
2023-05-21T07:36:45.334Z,776.25
2023-05-21T07:37:47.001Z,753.75
2023-05-21T07:38:45.535Z,759.38
2023-05-21T07:39:45.305Z,753.75
2023-05-21T07:40:45.303Z,776.25
2023-05-21T07:41:45.284Z,753.75
2023-05-21T07:42:45.264Z,793.12
2023-05-21T07:43:46.887Z,871.88
2023-05-21T07:44:45.330Z,770.62
2023-05-21T07:45:45.248Z,770.62
2023-05-21T07:46:45.255Z,832.50
2023-05-21T07:47:45.294Z,826.88
2023-05-21T07:48:45.204Z,849.38
2023-05-21T07:49:45.849Z,860.62
2023-05-21T07:50:45.449Z,804.38
2023-05-21T07:51:45.188Z,736.88
2023-05-21T07:52:48.681Z,765.00
2023-05-21T07:53:45.165Z,759.38
2023-05-21T07:54:45.777Z,838.12
2023-05-21T07:55:45.138Z,815.62
2023-05-21T07:56:45.754Z,810.00
2023-05-21T07:57:45.119Z,776.25
2023-05-21T07:58:45.105Z,815.62
2023-05-21T07:59:45.107Z,832.50
2023-05-21T08:00:45.092Z,860.62
2023-05-21T08:01:45.110Z,849.38
2023-05-21T08:02:45.160Z,810.00
2023-05-21T08:03:45.238Z,742.50
2023-05-21T08:04:45.071Z,686.25
2023-05-21T08:05:46.604Z,506.25
2023-05-21T08:06:45.061Z,326.25
2023-05-21T08:07:45.026Z,298.12
2023-05-21T08:08:45.005Z,292.50
2023-05-21T08:09:46.628Z,281.25
2023-05-21T08:10:48.041Z,281.25
2023-05-21T08:11:45.610Z,281.25
2023-05-21T08:12:44.963Z,281.25
2023-05-21T08:13:44.964Z,275.62
2023-05-21T08:14:44.983Z,275.62
2023-05-21T08:15:44.959Z,275.62
2023-05-21T08:16:46.625Z,281.25
2023-05-21T08:17:44.968Z,286.88
2023-05-21T08:18:44.969Z,292.50
2023-05-21T08:19:44.942Z,309.38
2023-05-21T08:20:44.883Z,348.75
2023-05-21T08:21:44.902Z,478.12
2023-05-21T08:22:44.876Z,646.88
2023-05-21T08:23:45.570Z,770.62
2023-05-21T08:24:45.570Z,838.12
2023-05-21T08:25:44.839Z,900.00
2023-05-21T08:26:44.828Z,990.00
2023-05-21T08:27:45.436Z,1001.25
2023-05-21T08:28:44.805Z,933.75
2023-05-21T08:29:44.828Z,1012.50
2023-05-21T08:30:44.796Z,1091.25
2023-05-21T08:31:46.334Z,1074.38
2023-05-21T08:32:44.787Z,1085.62
2023-05-21T08:33:44.772Z,1096.88
2023-05-21T09:08:17.747Z,444.38
2023-05-21T09:09:18.730Z,382.50
2023-05-21T09:10:18.700Z,444.38
2023-05-21T09:11:18.721Z,286.88
2023-05-21T09:12:18.697Z,286.88
2023-05-21T09:13:18.692Z,241.88
2023-05-21T09:14:18.663Z,241.88
2023-05-21T09:15:18.675Z,264.38
2023-05-21T09:16:18.690Z,388.12
2023-05-21T09:17:18.634Z,376.88
2023-05-21T09:18:18.644Z,303.75
2023-05-21T09:19:18.736Z,343.12
2023-05-21T09:20:18.647Z,320.62
2023-05-21T09:21:18.607Z,393.75
2023-05-21T09:22:18.577Z,315.00
2023-05-21T09:23:18.580Z,275.62
2023-05-21T09:24:18.575Z,568.12
2023-05-21T09:25:18.584Z,388.12
2023-05-21T09:26:18.537Z,568.12
2023-05-21T09:27:18.542Z,421.88
2023-05-21T09:28:18.537Z,393.75
2023-05-21T09:29:18.517Z,410.62
2023-05-21T09:30:18.582Z,354.38
2023-05-21T09:31:18.546Z,348.75
2023-05-21T09:32:18.484Z,303.75
2023-05-21T09:33:18.487Z,292.50
2023-05-21T09:34:18.465Z,264.38
2023-05-21T09:35:18.448Z,253.12
2023-05-21T09:36:18.465Z,241.88
2023-05-21T09:37:27.157Z,236.25
2023-05-21T09:38:18.421Z,219.38
2023-05-21T09:39:18.782Z,213.75
2023-05-21T09:40:18.410Z,225.00
2023-05-21T09:41:21.594Z,230.62
2023-05-21T09:42:18.380Z,230.62
2023-05-21T09:43:18.405Z,225.00
2023-05-21T09:44:18.381Z,219.38
2023-05-21T09:45:18.382Z,219.38
2023-05-21T09:46:18.375Z,225.00
2023-05-21T09:47:18.338Z,219.38
2023-05-21T09:48:18.324Z,219.38
2023-05-21T09:49:18.333Z,219.38
2023-05-21T09:50:18.351Z,219.38
2023-05-21T09:51:18.360Z,219.38
2023-05-21T09:52:18.295Z,225.00
2023-05-21T09:53:18.264Z,225.00
2023-05-21T09:54:18.278Z,236.25
2023-05-21T09:55:19.379Z,241.88
2023-05-21T09:56:18.254Z,258.75
2023-05-21T09:57:18.235Z,264.38
2023-05-21T09:58:18.214Z,264.38
2023-05-21T09:59:19.895Z,281.25
2023-05-21T10:00:19.405Z,286.88
2023-05-21T10:01:18.220Z,303.75
2023-05-21T10:02:18.319Z,309.38
2023-05-21T10:03:20.965Z,298.12
2023-05-21T10:04:18.168Z,298.12
2023-05-21T10:05:18.160Z,303.75
2023-05-21T10:06:18.159Z,309.38
2023-05-21T10:07:18.129Z,309.38
2023-05-21T10:08:18.715Z,309.38
2023-05-21T10:09:18.114Z,281.25
2023-05-21T10:10:18.708Z,292.50
2023-05-21T10:11:21.842Z,303.75
2023-05-21T10:12:18.073Z,309.38
2023-05-21T10:13:18.083Z,309.38
2023-05-21T10:14:19.673Z,303.75
2023-05-21T10:15:18.055Z,303.75
2023-05-21T10:16:18.672Z,298.12
2023-05-21T10:17:18.036Z,309.38
2023-05-21T10:18:18.052Z,320.62
2023-05-21T10:19:18.102Z,331.88
2023-05-21T10:20:19.612Z,337.50
2023-05-21T10:21:17.999Z,331.88
2023-05-21T10:22:18.018Z,326.25
2023-05-21T10:23:17.977Z,320.62
2023-05-21T10:24:17.956Z,303.75
2023-05-21T10:25:17.954Z,315.00
2023-05-21T10:26:17.940Z,326.25
2023-05-21T10:27:17.963Z,320.62
2023-05-21T10:28:17.927Z,315.00
2023-05-21T10:29:19.612Z,303.75
2023-05-21T10:30:17.899Z,286.88
2023-05-21T10:31:17.899Z,281.25
2023-05-21T10:32:19.693Z,286.88
2023-05-21T10:33:18.515Z,286.88
2023-05-21T10:34:17.868Z,286.88
2023-05-21T10:35:19.448Z,286.88
2023-05-21T10:36:17.851Z,281.25
2023-05-21T10:37:17.883Z,281.25
2023-05-21T10:38:17.813Z,281.25
2023-05-21T10:39:18.535Z,270.00
2023-05-21T10:40:21.245Z,270.00
2023-05-21T10:41:18.508Z,270.00
2023-05-21T10:42:19.390Z,270.00
2023-05-21T10:43:17.788Z,270.00
2023-05-21T10:44:18.130Z,275.62
2023-05-21T10:45:17.770Z,275.62
2023-05-21T10:46:18.494Z,270.00
2023-05-21T10:47:18.400Z,275.62
2023-05-21T10:48:17.782Z,281.25
2023-05-21T10:49:18.410Z,286.88
2023-05-21T10:50:17.715Z,275.62
2023-05-21T10:51:18.337Z,281.25
2023-05-21T10:52:18.344Z,292.50
2023-05-21T10:53:17.690Z,292.50
2023-05-21T10:54:17.721Z,286.88
2023-05-21T10:55:17.681Z,281.25
2023-05-21T10:56:17.638Z,270.00
2023-05-21T10:57:17.668Z,275.62
2023-05-21T10:58:17.616Z,275.62
2023-05-21T10:59:17.910Z,270.00
2023-05-21T11:00:19.124Z,286.88
2023-05-21T11:01:17.636Z,292.50
2023-05-21T11:02:17.653Z,281.25
2023-05-21T11:03:17.706Z,281.25
2023-05-21T11:04:17.592Z,281.25
2023-05-21T11:05:18.540Z,286.88
2023-05-21T11:06:17.553Z,292.50
2023-05-21T11:07:18.106Z,298.12
2023-05-21T11:08:19.654Z,303.75
2023-05-21T11:09:18.169Z,303.75
2023-05-21T11:10:18.207Z,298.12
2023-05-21T11:11:17.528Z,286.88
2023-05-21T11:12:18.756Z,281.25
2023-05-21T11:13:18.145Z,270.00
2023-05-21T11:14:18.750Z,264.38
2023-05-21T11:15:17.706Z,264.38
2023-05-21T11:16:18.069Z,258.75
2023-05-21T11:17:18.224Z,253.12
2023-05-21T11:18:17.443Z,247.50
2023-05-21T11:19:17.469Z,241.88
2023-05-21T11:20:17.400Z,241.88
2023-05-21T11:21:17.428Z,241.88
2023-05-21T11:22:17.376Z,241.88
2023-05-21T11:23:17.387Z,241.88
2023-05-21T11:24:17.361Z,241.88
2023-05-21T11:25:17.363Z,241.88
2023-05-21T11:26:17.365Z,241.88
2023-05-21T11:27:18.457Z,241.88
2023-05-21T11:28:17.912Z,247.50
2023-05-21T11:29:18.876Z,247.50
2023-05-21T11:30:17.337Z,241.88
2023-05-21T11:31:17.341Z,241.88
2023-05-21T11:32:17.553Z,247.50
2023-05-21T11:33:17.589Z,247.50
2023-05-21T11:34:17.306Z,247.50
2023-05-21T11:35:17.913Z,253.12
2023-05-21T11:36:17.848Z,253.12
2023-05-21T11:37:17.249Z,258.75
2023-05-21T11:38:17.237Z,258.75
2023-05-21T11:39:18.948Z,258.75
2023-05-21T11:40:17.520Z,258.75
2023-05-21T11:41:17.828Z,264.38
2023-05-21T11:42:17.189Z,264.38
2023-05-21T11:43:17.196Z,264.38
2023-05-21T11:44:17.199Z,264.38
2023-05-21T11:45:17.189Z,264.38
2023-05-21T11:46:17.217Z,270.00
2023-05-21T11:47:17.174Z,275.62
2023-05-21T11:48:17.138Z,281.25
2023-05-21T11:49:17.132Z,281.25
2023-05-21T11:50:17.127Z,286.88
2023-05-21T11:51:17.109Z,281.25
2023-05-21T11:52:17.100Z,281.25
2023-05-21T11:53:17.104Z,281.25
2023-05-21T11:54:18.717Z,275.62
2023-05-21T11:55:17.536Z,270.00
2023-05-21T11:56:17.049Z,275.62
2023-05-21T11:57:17.064Z,275.62
2023-05-21T11:58:17.026Z,275.62
2023-05-21T11:59:18.839Z,247.50
2023-05-21T12:00:17.033Z,275.62
2023-05-21T12:01:18.627Z,270.00
2023-05-21T12:02:16.989Z,270.00
2023-05-21T12:03:17.079Z,270.00
2023-05-21T12:04:18.606Z,270.00
2023-05-21T12:05:17.028Z,264.38
2023-05-21T12:06:17.030Z,264.38
2023-05-21T12:07:16.962Z,270.00
2023-05-21T12:08:16.920Z,270.00
2023-05-21T12:09:18.566Z,264.38
2023-05-21T12:10:16.913Z,258.75
2023-05-21T12:11:16.933Z,258.75
2023-05-21T12:12:16.895Z,258.75
2023-05-21T12:13:16.884Z,258.75
2023-05-21T12:14:17.506Z,264.38
2023-05-21T12:15:16.892Z,270.00
2023-05-21T12:16:16.891Z,275.62
2023-05-21T12:17:16.860Z,258.75
2023-05-21T12:18:16.848Z,258.75
2023-05-21T12:19:16.833Z,264.38
2023-05-21T12:20:16.843Z,258.75
2023-05-21T12:21:16.843Z,270.00
2023-05-21T12:22:16.824Z,270.00
2023-05-21T12:23:16.780Z,286.88
2023-05-21T12:24:16.813Z,292.50
2023-05-21T12:25:17.712Z,292.50
2023-05-21T12:26:16.791Z,298.12
2023-05-21T12:27:16.809Z,303.75
2023-05-21T12:28:16.764Z,303.75
2023-05-21T12:29:17.980Z,303.75
2023-05-21T12:30:16.736Z,298.12
2023-05-21T12:31:16.748Z,292.50
2023-05-21T12:32:16.703Z,292.50
2023-05-21T12:33:16.706Z,298.12
2023-05-21T12:34:16.711Z,298.12
2023-05-21T12:35:16.704Z,303.75
2023-05-21T12:36:16.658Z,303.75
2023-05-21T12:37:16.657Z,315.00
2023-05-21T12:38:16.678Z,309.38
2023-05-21T12:39:16.632Z,315.00
2023-05-21T12:40:16.631Z,326.25
2023-05-21T12:41:16.606Z,343.12
2023-05-21T12:42:16.602Z,337.50
2023-05-21T12:43:16.612Z,320.62
2023-05-21T12:44:16.591Z,247.50
2023-05-21T12:45:16.556Z,247.50
2023-05-21T12:46:16.635Z,286.88
2023-05-21T12:47:16.542Z,281.25
2023-05-21T12:48:16.540Z,275.62
2023-05-21T12:49:16.527Z,264.38
2023-05-21T12:50:16.566Z,258.75
2023-05-21T12:51:16.506Z,241.88
2023-05-21T12:52:16.514Z,247.50
2023-05-21T12:53:16.498Z,281.25
2023-05-21T12:54:16.513Z,275.62
2023-05-21T12:55:16.602Z,275.62
2023-05-21T12:56:16.497Z,281.25
2023-05-21T12:57:16.450Z,286.88
2023-05-21T12:58:16.469Z,281.25
2023-05-21T12:59:16.429Z,286.88
2023-05-21T13:00:16.434Z,264.38
2023-05-21T13:01:16.473Z,253.12
2023-05-21T13:02:16.410Z,247.50
2023-05-21T13:03:16.491Z,258.75
2023-05-21T13:04:16.418Z,236.25
2023-05-21T13:05:16.369Z,270.00
2023-05-21T13:06:16.389Z,286.88
2023-05-21T13:07:16.350Z,241.88
2023-05-21T13:08:16.360Z,264.38
2023-05-21T13:09:16.333Z,270.00
2023-05-21T13:10:16.709Z,258.75
2023-05-21T13:11:16.312Z,258.75
2023-05-21T13:12:16.342Z,258.75
2023-05-21T13:13:16.294Z,196.88
2023-05-21T13:14:16.291Z,230.62
2023-05-21T13:15:16.277Z,180.00
2023-05-21T13:16:16.319Z,185.62
2023-05-21T13:17:16.280Z,270.00
2023-05-21T13:18:17.576Z,298.12